Terminal Aerodrome Forecast
Issued by NWS

Home | Current Version | Previous Version | Text Only | Print | Product List | Glossary On
Versions: 1 2 3 4 5 6 7 8 9 10 11 12 13 14 15 16 17 18 19 20 21 22 23 24 25 26
000
FTAK31 PANC 051135
TAFADQ
TAF
PADQ 051135Z 0512/0612 11007KT P6SM VCSH BKN025 OVC035
     FM051500 10012KT P6SM -RA BKN015 OVC030
     FM060200 07011KT P6SM -RA SCT008 BKN012 OVC022=

USA.gov is the U.S. government's official web portal to all federal, state and local government web resources and services.